sensor_id;sensor_type;location;lat;lon;timestamp;temperature;humidity
64143;DHT22;50437;51.970;5.904;2023-09-08T00:00:22;20.40;99.90
64143;DHT22;50437;51.970;5.904;2023-09-08T00:02:48;20.40;99.90
64143;DHT22;50437;51.970;5.904;2023-09-08T00:05:14;20.30;99.90
64143;DHT22;50437;51.970;5.904;2023-09-08T00:07:41;20.50;99.90
64143;DHT22;50437;51.970;5.904;2023-09-08T00:10:09;20.40;99.90
64143;DHT22;50437;51.970;5.904;2023-09-08T00:12:36;20.40;99.90
64143;DHT22;50437;51.970;5.904;2023-09-08T00:15:02;20.30;99.90
64143;DHT22;50437;51.970;5.904;2023-09-08T00:17:28;20.30;99.90
64143;DHT22;50437;51.970;5.904;2023-09-08T00:19:54;20.30;99.90
64143;DHT22;50437;51.970;5.904;2023-09-08T00:22:20;20.20;99.90
64143;DHT22;50437;51.970;5.904;2023-09-08T00:24:46;20.20;99.90
64143;DHT22;50437;51.970;5.904;2023-09-08T00:27:12;20.30;99.90
64143;DHT22;50437;51.970;5.904;2023-09-08T00:29:38;20.20;99.90
64143;DHT22;50437;51.970;5.904;2023-09-08T00:32:04;20.10;99.90
64143;DHT22;50437;51.970;5.904;2023-09-08T00:34:30;20.00;99.90
64143;DHT22;50437;51.970;5.904;2023-09-08T00:36:57;20.00;99.90
64143;DHT22;50437;51.970;5.904;2023-09-08T00:39:23;20.20;99.90
64143;DHT22;50437;51.970;5.904;2023-09-08T00:41:49;20.10;99.90
64143;DHT22;50437;51.970;5.904;2023-09-08T00:44:15;20.10;99.90
64143;DHT22;50437;51.970;5.904;2023-09-08T00:46:41;20.10;99.90
64143;DHT22;50437;51.970;5.904;2023-09-08T00:49:07;20.10;99.90
64143;DHT22;50437;51.970;5.904;2023-09-08T00:51:34;20.00;99.90
64143;DHT22;50437;51.970;5.904;2023-09-08T00:54:02;20.10;99.90
64143;DHT22;50437;51.970;5.904;2023-09-08T00:56:28;19.80;99.90
64143;DHT22;50437;51.970;5.904;2023-09-08T00:58:55;19.70;99.90
64143;DHT22;50437;51.970;5.904;2023-09-08T01:01:21;19.60;99.90
64143;DHT22;50437;51.970;5.904;2023-09-08T01:03:47;19.70;99.90
64143;DHT22;50437;51.970;5.904;2023-09-08T01:06:13;19.70;99.90
64143;DHT22;50437;51.970;5.904;2023-09-08T01:08:39;19.70;99.90
64143;DHT22;50437;51.970;5.904;2023-09-08T01:11:06;19.70;99.90
64143;DHT22;50437;51.970;5.904;2023-09-08T01:13:32;19.70;99.90
64143;DHT22;50437;51.970;5.904;2023-09-08T01:15:58;19.60;99.90
64143;DHT22;50437;51.970;5.904;2023-09-08T01:18:26;19.70;99.90
64143;DHT22;50437;51.970;5.904;2023-09-08T01:23:21;19.60;99.90
64143;DHT22;50437;51.970;5.904;2023-09-08T01:25:52;19.60;99.90
64143;DHT22;50437;51.970;5.904;2023-09-08T01:28:20;19.70;99.90
64143;DHT22;50437;51.970;5.904;2023-09-08T01:30:47;19.50;99.90
64143;DHT22;50437;51.970;5.904;2023-09-08T01:33:14;19.50;99.90
64143;DHT22;50437;51.970;5.904;2023-09-08T01:35:40;19.50;99.90
64143;DHT22;50437;51.970;5.904;2023-09-08T01:38:06;19.40;99.90
64143;DHT22;50437;51.970;5.904;2023-09-08T01:40:32;19.30;99.90
64143;DHT22;50437;51.970;5.904;2023-09-08T01:42:59;19.40;99.90
64143;DHT22;50437;51.970;5.904;2023-09-08T01:45:25;19.40;99.90
64143;DHT22;50437;51.970;5.904;2023-09-08T01:47:51;19.40;99.90
64143;DHT22;50437;51.970;5.904;2023-09-08T01:50:17;19.30;99.90
64143;DHT22;50437;51.970;5.904;2023-09-08T01:52:48;19.20;99.90
64143;DHT22;50437;51.970;5.904;2023-09-08T01:55:14;19.20;99.90
64143;DHT22;50437;51.970;5.904;2023-09-08T01:57:42;19.10;99.90
64143;DHT22;50437;51.970;5.904;2023-09-08T02:00:09;19.10;99.90
64143;DHT22;50437;51.970;5.904;2023-09-08T02:02:38;19.00;99.90
64143;DHT22;50437;51.970;5.904;2023-09-08T02:05:05;19.00;99.90
64143;DHT22;50437;51.970;5.904;2023-09-08T02:07:32;18.90;99.90
64143;DHT22;50437;51.970;5.904;2023-09-08T02:09:58;18.90;99.90
64143;DHT22;50437;51.970;5.904;2023-09-08T02:12:24;19.00;99.90
64143;DHT22;50437;51.970;5.904;2023-09-08T02:14:50;18.90;99.90
64143;DHT22;50437;51.970;5.904;2023-09-08T02:17:18;19.00;99.90
64143;DHT22;50437;51.970;5.904;2023-09-08T02:19:45;19.00;99.90
64143;DHT22;50437;51.970;5.904;2023-09-08T02:22:11;18.90;99.90
64143;DHT22;50437;51.970;5.904;2023-09-08T02:24:37;18.80;99.90
64143;DHT22;50437;51.970;5.904;2023-09-08T02:27:03;18.80;99.90
64143;DHT22;50437;51.970;5.904;2023-09-08T02:29:30;18.60;99.90
64143;DHT22;50437;51.970;5.904;2023-09-08T02:31:56;18.70;99.90
64143;DHT22;50437;51.970;5.904;2023-09-08T02:34:23;18.60;99.90
64143;DHT22;50437;51.970;5.904;2023-09-08T02:36:52;18.60;99.90
64143;DHT22;50437;51.970;5.904;2023-09-08T02:39:22;18.60;99.90
64143;DHT22;50437;51.970;5.904;2023-09-08T02:41:49;18.60;99.90
64143;DHT22;50437;51.970;5.904;2023-09-08T02:44:15;18.50;99.90
64143;DHT22;50437;51.970;5.904;2023-09-08T02:46:43;18.60;99.90
64143;DHT22;50437;51.970;5.904;2023-09-08T02:49:09;18.50;99.90
64143;DHT22;50437;51.970;5.904;2023-09-08T02:51:36;18.60;99.90
64143;DHT22;50437;51.970;5.904;2023-09-08T02:54:02;18.50;99.90
64143;DHT22;50437;51.970;5.904;2023-09-08T02:56:30;18.40;99.90
64143;DHT22;50437;51.970;5.904;2023-09-08T02:58:56;18.40;99.90
64143;DHT22;50437;51.970;5.904;2023-09-08T03:01:22;18.50;99.90
64143;DHT22;50437;51.970;5.904;2023-09-08T03:03:48;18.50;99.90
64143;DHT22;50437;51.970;5.904;2023-09-08T03:06:17;18.50;99.90
64143;DHT22;50437;51.970;5.904;2023-09-08T03:08:44;18.50;99.90
64143;DHT22;50437;51.970;5.904;2023-09-08T03:11:10;18.50;99.90
64143;DHT22;50437;51.970;5.904;2023-09-08T03:13:36;18.40;99.90
64143;DHT22;50437;51.970;5.904;2023-09-08T03:16:06;18.40;99.90
64143;DHT22;50437;51.970;5.904;2023-09-08T03:18:33;18.30;99.90
64143;DHT22;50437;51.970;5.904;2023-09-08T03:20:59;18.30;99.90
64143;DHT22;50437;51.970;5.904;2023-09-08T03:23:38;18.30;99.90
64143;DHT22;50437;51.970;5.904;2023-09-08T03:26:04;18.20;99.90
64143;DHT22;50437;51.970;5.904;2023-09-08T03:28:32;18.20;99.90
64143;DHT22;50437;51.970;5.904;2023-09-08T03:31:02;18.30;99.90
64143;DHT22;50437;51.970;5.904;2023-09-08T03:33:31;18.40;99.90
64143;DHT22;50437;51.970;5.904;2023-09-08T03:35:58;18.30;99.90
64143;DHT22;50437;51.970;5.904;2023-09-08T03:38:24;18.30;99.90
64143;DHT22;50437;51.970;5.904;2023-09-08T03:40:51;18.30;99.90
64143;DHT22;50437;51.970;5.904;2023-09-08T03:43:17;18.30;99.90
64143;DHT22;50437;51.970;5.904;2023-09-08T03:45:44;18.20;99.90
64143;DHT22;50437;51.970;5.904;2023-09-08T03:48:10;18.20;99.90
64143;DHT22;50437;51.970;5.904;2023-09-08T03:50:36;18.20;99.90
64143;DHT22;50437;51.970;5.904;2023-09-08T03:53:03;18.10;99.90
64143;DHT22;50437;51.970;5.904;2023-09-08T03:55:29;18.10;99.90
64143;DHT22;50437;51.970;5.904;2023-09-08T03:57:55;18.10;99.90
64143;DHT22;50437;51.970;5.904;2023-09-08T04:00:22;18.00;99.90
64143;DHT22;50437;51.970;5.904;2023-09-08T04:02:48;18.10;99.90
64143;DHT22;50437;51.970;5.904;2023-09-08T04:05:17;18.10;99.90
64143;DHT22;50437;51.970;5.904;2023-09-08T04:07:45;18.10;99.90
64143;DHT22;50437;51.970;5.904;2023-09-08T04:10:11;18.00;99.90
64143;DHT22;50437;51.970;5.904;2023-09-08T04:12:38;18.00;99.90
64143;DHT22;50437;51.970;5.904;2023-09-08T04:15:05;17.90;99.90
64143;DHT22;50437;51.970;5.904;2023-09-08T04:17:31;17.90;99.90
64143;DHT22;50437;51.970;5.904;2023-09-08T04:19:57;18.00;99.90
64143;DHT22;50437;51.970;5.904;2023-09-08T04:22:24;18.00;99.90
64143;DHT22;50437;51.970;5.904;2023-09-08T04:24:50;17.90;99.90
64143;DHT22;50437;51.970;5.904;2023-09-08T04:27:17;17.90;99.90
64143;DHT22;50437;51.970;5.904;2023-09-08T04:29:43;17.90;99.90
64143;DHT22;50437;51.970;5.904;2023-09-08T04:32:09;17.90;99.90
64143;DHT22;50437;51.970;5.904;2023-09-08T04:34:37;17.90;99.90
64143;DHT22;50437;51.970;5.904;2023-09-08T04:37:03;17.90;99.90
64143;DHT22;50437;51.970;5.904;2023-09-08T04:39:29;17.90;99.90
64143;DHT22;50437;51.970;5.904;2023-09-08T04:41:55;17.90;99.90
64143;DHT22;50437;51.970;5.904;2023-09-08T04:44:21;17.90;99.90
64143;DHT22;50437;51.970;5.904;2023-09-08T04:46:48;18.00;99.90
64143;DHT22;50437;51.970;5.904;2023-09-08T04:49:14;18.00;99.90
64143;DHT22;50437;51.970;5.904;2023-09-08T04:51:40;18.10;99.90
64143;DHT22;50437;51.970;5.904;2023-09-08T04:54:06;18.00;99.90
64143;DHT22;50437;51.970;5.904;2023-09-08T04:56:33;17.80;99.90
64143;DHT22;50437;51.970;5.904;2023-09-08T04:58:59;17.90;99.90
64143;DHT22;50437;51.970;5.904;2023-09-08T05:01:27;17.70;99.90
64143;DHT22;50437;51.970;5.904;2023-09-08T05:03:55;17.70;99.90
64143;DHT22;50437;51.970;5.904;2023-09-08T05:06:22;17.70;99.90
64143;DHT22;50437;51.970;5.904;2023-09-08T05:08:48;17.70;99.90
64143;DHT22;50437;51.970;5.904;2023-09-08T05:11:15;17.60;99.90
64143;DHT22;50437;51.970;5.904;2023-09-08T05:13:41;17.70;99.90
64143;DHT22;50437;51.970;5.904;2023-09-08T05:16:07;17.60;99.90
64143;DHT22;50437;51.970;5.904;2023-09-08T05:18:39;17.70;99.90
64143;DHT22;50437;51.970;5.904;2023-09-08T05:21:06;17.70;99.90
64143;DHT22;50437;51.970;5.904;2023-09-08T05:23:32;17.70;99.90
64143;DHT22;50437;51.970;5.904;2023-09-08T05:25:59;17.70;99.90
64143;DHT22;50437;51.970;5.904;2023-09-08T05:28:25;17.60;99.90
64143;DHT22;50437;51.970;5.904;2023-09-08T05:30:51;17.70;99.90
64143;DHT22;50437;51.970;5.904;2023-09-08T05:33:18;17.70;99.90
64143;DHT22;50437;51.970;5.904;2023-09-08T05:35:44;17.80;99.90
64143;DHT22;50437;51.970;5.904;2023-09-08T05:38:11;17.80;99.90
64143;DHT22;50437;51.970;5.904;2023-09-08T05:40:38;17.80;99.90
64143;DHT22;50437;51.970;5.904;2023-09-08T05:43:04;17.70;99.90
64143;DHT22;50437;51.970;5.904;2023-09-08T05:45:33;17.80;99.90
64143;DHT22;50437;51.970;5.904;2023-09-08T05:48:00;17.80;99.90
64143;DHT22;50437;51.970;5.904;2023-09-08T05:50:27;17.90;99.90
64143;DHT22;50437;51.970;5.904;2023-09-08T05:52:54;17.90;99.90
64143;DHT22;50437;51.970;5.904;2023-09-08T05:55:21;18.00;99.90
64143;DHT22;50437;51.970;5.904;2023-09-08T05:57:48;18.00;99.90
64143;DHT22;50437;51.970;5.904;2023-09-08T06:00:14;18.00;99.90
64143;DHT22;50437;51.970;5.904;2023-09-08T06:02:44;18.00;99.90
64143;DHT22;50437;51.970;5.904;2023-09-08T06:05:13;18.00;99.90
64143;DHT22;50437;51.970;5.904;2023-09-08T06:07:39;18.00;99.90
64143;DHT22;50437;51.970;5.904;2023-09-08T06:10:08;18.10;99.90
64143;DHT22;50437;51.970;5.904;2023-09-08T06:12:35;18.20;99.90
64143;DHT22;50437;51.970;5.904;2023-09-08T06:15:05;18.20;99.90
64143;DHT22;50437;51.970;5.904;2023-09-08T06:17:33;18.30;99.90
64143;DHT22;50437;51.970;5.904;2023-09-08T06:19:59;18.30;99.90
64143;DHT22;50437;51.970;5.904;2023-09-08T06:22:26;18.30;99.90
64143;DHT22;50437;51.970;5.904;2023-09-08T06:24:52;18.40;99.90
64143;DHT22;50437;51.970;5.904;2023-09-08T06:27:18;18.40;99.90
64143;DHT22;50437;51.970;5.904;2023-09-08T06:29:45;18.50;99.90
64143;DHT22;50437;51.970;5.904;2023-09-08T06:32:13;18.50;99.90
64143;DHT22;50437;51.970;5.904;2023-09-08T06:34:41;18.60;99.90
64143;DHT22;50437;51.970;5.904;2023-09-08T06:37:09;18.60;99.90
64143;DHT22;50437;51.970;5.904;2023-09-08T06:39:35;18.60;99.90
64143;DHT22;50437;51.970;5.904;2023-09-08T06:42:02;18.70;99.90
64143;DHT22;50437;51.970;5.904;2023-09-08T06:44:29;18.80;99.90
64143;DHT22;50437;51.970;5.904;2023-09-08T06:46:55;18.80;99.90
64143;DHT22;50437;51.970;5.904;2023-09-08T06:49:22;18.80;99.90
64143;DHT22;50437;51.970;5.904;2023-09-08T06:51:48;18.80;99.90
64143;DHT22;50437;51.970;5.904;2023-09-08T06:54:15;18.90;99.90
64143;DHT22;50437;51.970;5.904;2023-09-08T06:56:43;18.90;99.90
64143;DHT22;50437;51.970;5.904;2023-09-08T06:59:09;19.00;99.90
64143;DHT22;50437;51.970;5.904;2023-09-08T07:01:37;19.10;99.90
64143;DHT22;50437;51.970;5.904;2023-09-08T07:04:03;19.10;99.90
64143;DHT22;50437;51.970;5.904;2023-09-08T07:06:31;19.10;99.90
64143;DHT22;50437;51.970;5.904;2023-09-08T07:08:57;19.10;99.90
64143;DHT22;50437;51.970;5.904;2023-09-08T07:11:24;19.20;99.90
64143;DHT22;50437;51.970;5.904;2023-09-08T07:13:50;19.30;99.90
64143;DHT22;50437;51.970;5.904;2023-09-08T07:16:16;19.40;99.90
64143;DHT22;50437;51.970;5.904;2023-09-08T07:18:43;19.40;99.90
64143;DHT22;50437;51.970;5.904;2023-09-08T07:21:11;19.40;99.90
64143;DHT22;50437;51.970;5.904;2023-09-08T07:23:37;19.50;99.90
64143;DHT22;50437;51.970;5.904;2023-09-08T07:26:06;19.50;99.90
64143;DHT22;50437;51.970;5.904;2023-09-08T07:28:32;19.50;99.90
64143;DHT22;50437;51.970;5.904;2023-09-08T07:31:03;19.60;99.90
64143;DHT22;50437;51.970;5.904;2023-09-08T07:33:31;19.70;99.90
64143;DHT22;50437;51.970;5.904;2023-09-08T07:36:04;19.70;99.90
64143;DHT22;50437;51.970;5.904;2023-09-08T07:38:30;19.80;99.90
64143;DHT22;50437;51.970;5.904;2023-09-08T07:40:56;19.90;99.90
64143;DHT22;50437;51.970;5.904;2023-09-08T07:43:22;20.00;99.90
64143;DHT22;50437;51.970;5.904;2023-09-08T07:45:48;20.10;99.90
64143;DHT22;50437;51.970;5.904;2023-09-08T07:48:14;20.10;99.90
64143;DHT22;50437;51.970;5.904;2023-09-08T07:50:41;20.10;99.90
64143;DHT22;50437;51.970;5.904;2023-09-08T07:53:07;20.30;99.90
64143;DHT22;50437;51.970;5.904;2023-09-08T07:55:33;20.30;99.90
64143;DHT22;50437;51.970;5.904;2023-09-08T07:58:00;20.30;99.90
64143;DHT22;50437;51.970;5.904;2023-09-08T08:00:26;20.40;99.90
64143;DHT22;50437;51.970;5.904;2023-09-08T08:02:54;20.40;99.90
64143;DHT22;50437;51.970;5.904;2023-09-08T08:05:21;20.40;99.90
64143;DHT22;50437;51.970;5.904;2023-09-08T08:07:47;20.50;99.90
64143;DHT22;50437;51.970;5.904;2023-09-08T08:10:13;20.50;99.90
64143;DHT22;50437;51.970;5.904;2023-09-08T08:12:39;20.70;99.90
64143;DHT22;50437;51.970;5.904;2023-09-08T08:15:08;20.80;99.90
64143;DHT22;50437;51.970;5.904;2023-09-08T08:17:36;20.90;99.90
64143;DHT22;50437;51.970;5.904;2023-09-08T08:20:03;21.00;99.90
64143;DHT22;50437;51.970;5.904;2023-09-08T08:22:36;21.10;99.90
64143;DHT22;50437;51.970;5.904;2023-09-08T08:25:02;21.20;99.90
64143;DHT22;50437;51.970;5.904;2023-09-08T08:27:31;21.30;99.90
64143;DHT22;50437;51.970;5.904;2023-09-08T08:30:04;21.50;99.90
64143;DHT22;50437;51.970;5.904;2023-09-08T08:32:31;23.30;99.90
64143;DHT22;50437;51.970;5.904;2023-09-08T08:34:57;25.10;99.90
64143;DHT22;50437;51.970;5.904;2023-09-08T08:37:24;26.30;99.90
64143;DHT22;50437;51.970;5.904;2023-09-08T08:39:50;27.20;99.90
64143;DHT22;50437;51.970;5.904;2023-09-08T08:42:17;27.70;99.90
64143;DHT22;50437;51.970;5.904;2023-09-08T08:44:43;28.40;99.90
64143;DHT22;50437;51.970;5.904;2023-09-08T08:47:12;28.80;99.90
64143;DHT22;50437;51.970;5.904;2023-09-08T08:49:43;28.90;99.90
64143;DHT22;50437;51.970;5.904;2023-09-08T08:52:11;29.20;99.90
64143;DHT22;50437;51.970;5.904;2023-09-08T08:54:38;29.30;99.90
64143;DHT22;50437;51.970;5.904;2023-09-08T08:57:05;29.90;99.90
64143;DHT22;50437;51.970;5.904;2023-09-08T08:59:31;30.20;99.90
64143;DHT22;50437;51.970;5.904;2023-09-08T09:02:01;30.30;99.90
64143;DHT22;50437;51.970;5.904;2023-09-08T09:04:28;30.70;99.90
64143;DHT22;50437;51.970;5.904;2023-09-08T09:06:55;30.90;99.90
64143;DHT22;50437;51.970;5.904;2023-09-08T09:09:22;31.20;99.70
64143;DHT22;50437;51.970;5.904;2023-09-08T09:11:49;30.80;99.80
64143;DHT22;50437;51.970;5.904;2023-09-08T09:14:16;31.10;98.00
64143;DHT22;50437;51.970;5.904;2023-09-08T09:16:43;31.30;99.40
64143;DHT22;50437;51.970;5.904;2023-09-08T09:19:10;31.80;98.50
64143;DHT22;50437;51.970;5.904;2023-09-08T09:21:43;31.40;98.40
64143;DHT22;50437;51.970;5.904;2023-09-08T09:24:15;31.70;98.50
64143;DHT22;50437;51.970;5.904;2023-09-08T09:26:42;31.70;98.00
64143;DHT22;50437;51.970;5.904;2023-09-08T09:29:12;31.80;97.40
64143;DHT22;50437;51.970;5.904;2023-09-08T09:34:25;32.00;97.20
64143;DHT22;50437;51.970;5.904;2023-09-08T09:36:51;32.60;97.10
64143;DHT22;50437;51.970;5.904;2023-09-08T09:39:21;32.80;96.80
64143;DHT22;50437;51.970;5.904;2023-09-08T09:41:48;32.90;95.40
64143;DHT22;50437;51.970;5.904;2023-09-08T09:44:15;33.00;95.40
64143;DHT22;50437;51.970;5.904;2023-09-08T09:46:45;33.00;96.20
64143;DHT22;50437;51.970;5.904;2023-09-08T09:49:12;33.40;95.00
64143;DHT22;50437;51.970;5.904;2023-09-08T09:51:41;33.20;95.60
64143;DHT22;50437;51.970;5.904;2023-09-08T09:54:10;33.10;95.20
64143;DHT22;50437;51.970;5.904;2023-09-08T09:56:38;33.80;95.20
64143;DHT22;50437;51.970;5.904;2023-09-08T09:59:07;33.60;93.90
64143;DHT22;50437;51.970;5.904;2023-09-08T10:01:35;33.60;94.10
64143;DHT22;50437;51.970;5.904;2023-09-08T10:04:01;33.80;93.60
64143;DHT22;50437;51.970;5.904;2023-09-08T10:06:39;33.90;93.10
64143;DHT22;50437;51.970;5.904;2023-09-08T10:09:05;34.20;92.90
64143;DHT22;50437;51.970;5.904;2023-09-08T10:11:35;34.10;93.50
64143;DHT22;50437;51.970;5.904;2023-09-08T10:14:06;34.10;93.30
64143;DHT22;50437;51.970;5.904;2023-09-08T10:16:34;34.40;92.40
64143;DHT22;50437;51.970;5.904;2023-09-08T10:19:02;34.50;91.10
64143;DHT22;50437;51.970;5.904;2023-09-08T10:21:33;34.10;92.80
64143;DHT22;50437;51.970;5.904;2023-09-08T10:24:00;34.60;91.80
64143;DHT22;50437;51.970;5.904;2023-09-08T10:26:30;35.40;92.20
64143;DHT22;50437;51.970;5.904;2023-09-08T10:28:57;35.40;91.20
64143;DHT22;50437;51.970;5.904;2023-09-08T10:31:28;35.20;91.50
64143;DHT22;50437;51.970;5.904;2023-09-08T10:33:55;35.40;91.50
64143;DHT22;50437;51.970;5.904;2023-09-08T10:36:22;35.30;90.20
64143;DHT22;50437;51.970;5.904;2023-09-08T10:38:49;35.40;91.20
64143;DHT22;50437;51.970;5.904;2023-09-08T10:43:44;35.00;91.10
64143;DHT22;50437;51.970;5.904;2023-09-08T10:46:11;34.00;91.80
64143;DHT22;50437;51.970;5.904;2023-09-08T10:48:44;33.80;92.70
64143;DHT22;50437;51.970;5.904;2023-09-08T10:51:13;34.70;92.10
64143;DHT22;50437;51.970;5.904;2023-09-08T10:53:40;34.90;92.30
64143;DHT22;50437;51.970;5.904;2023-09-08T10:56:06;35.10;91.80
64143;DHT22;50437;51.970;5.904;2023-09-08T10:58:33;35.20;91.20
64143;DHT22;50437;51.970;5.904;2023-09-08T11:01:24;35.30;90.90
64143;DHT22;50437;51.970;5.904;2023-09-08T11:03:53;35.90;91.10
64143;DHT22;50437;51.970;5.904;2023-09-08T11:06:20;35.80;90.10
64143;DHT22;50437;51.970;5.904;2023-09-08T11:08:50;35.40;90.00
64143;DHT22;50437;51.970;5.904;2023-09-08T11:11:18;34.90;91.00
64143;DHT22;50437;51.970;5.904;2023-09-08T11:13:45;34.70;91.70
64143;DHT22;50437;51.970;5.904;2023-09-08T11:16:14;35.40;90.90
64143;DHT22;50437;51.970;5.904;2023-09-08T11:18:43;35.40;90.80
64143;DHT22;50437;51.970;5.904;2023-09-08T11:21:10;35.10;91.20
64143;DHT22;50437;51.970;5.904;2023-09-08T11:23:36;35.00;91.30
64143;DHT22;50437;51.970;5.904;2023-09-08T11:26:02;34.60;91.60
64143;DHT22;50437;51.970;5.904;2023-09-08T11:28:28;34.50;92.10
64143;DHT22;50437;51.970;5.904;2023-09-08T11:30:55;34.70;91.10
64143;DHT22;50437;51.970;5.904;2023-09-08T11:33:22;34.90;91.40
64143;DHT22;50437;51.970;5.904;2023-09-08T11:35:52;35.00;90.60
64143;DHT22;50437;51.970;5.904;2023-09-08T11:38:28;34.40;91.70
64143;DHT22;50437;51.970;5.904;2023-09-08T11:40:56;34.80;90.90
64143;DHT22;50437;51.970;5.904;2023-09-08T11:43:23;34.60;90.70
64143;DHT22;50437;51.970;5.904;2023-09-08T11:45:49;34.40;91.30
64143;DHT22;50437;51.970;5.904;2023-09-08T11:48:15;34.20;90.50
64143;DHT22;50437;51.970;5.904;2023-09-08T11:50:42;34.30;91.50
64143;DHT22;50437;51.970;5.904;2023-09-08T11:53:10;34.00;91.10
64143;DHT22;50437;51.970;5.904;2023-09-08T11:55:36;33.60;91.60
64143;DHT22;50437;51.970;5.904;2023-09-08T11:58:03;33.50;91.70
64143;DHT22;50437;51.970;5.904;2023-09-08T12:00:29;33.20;92.10
64143;DHT22;50437;51.970;5.904;2023-09-08T12:02:58;33.50;92.30
64143;DHT22;50437;51.970;5.904;2023-09-08T12:05:34;33.30;91.90
64143;DHT22;50437;51.970;5.904;2023-09-08T12:08:03;33.00;92.00
64143;DHT22;50437;51.970;5.904;2023-09-08T12:10:30;33.10;93.00
64143;DHT22;50437;51.970;5.904;2023-09-08T12:13:03;33.20;92.60
64143;DHT22;50437;51.970;5.904;2023-09-08T12:15:30;33.20;92.30
64143;DHT22;50437;51.970;5.904;2023-09-08T12:18:03;32.90;93.30
64143;DHT22;50437;51.970;5.904;2023-09-08T12:20:47;33.00;92.30
64143;DHT22;50437;51.970;5.904;2023-09-08T12:23:28;32.70;92.90
64143;DHT22;50437;51.970;5.904;2023-09-08T12:25:56;32.40;92.50
64143;DHT22;50437;51.970;5.904;2023-09-08T12:28:24;32.20;93.20
64143;DHT22;50437;51.970;5.904;2023-09-08T12:30:58;32.00;95.60
64143;DHT22;50437;51.970;5.904;2023-09-08T12:33:34;31.90;95.00
64143;DHT22;50437;51.970;5.904;2023-09-08T12:36:18;32.00;95.50
64143;DHT22;50437;51.970;5.904;2023-09-08T12:38:48;32.00;94.80
64143;DHT22;50437;51.970;5.904;2023-09-08T12:41:15;31.90;94.00
64143;DHT22;50437;51.970;5.904;2023-09-08T12:43:49;31.80;95.20
64143;DHT22;50437;51.970;5.904;2023-09-08T12:46:18;31.90;95.80
64143;DHT22;50437;51.970;5.904;2023-09-08T12:48:45;31.70;95.40
64143;DHT22;50437;51.970;5.904;2023-09-08T12:51:13;31.90;95.50
64143;DHT22;50437;51.970;5.904;2023-09-08T12:53:42;31.80;95.60
64143;DHT22;50437;51.970;5.904;2023-09-08T12:56:10;31.50;94.20
64143;DHT22;50437;51.970;5.904;2023-09-08T12:58:38;31.50;94.10
64143;DHT22;50437;51.970;5.904;2023-09-08T13:01:04;31.60;95.00
64143;DHT22;50437;51.970;5.904;2023-09-08T13:03:32;31.60;94.60
64143;DHT22;50437;51.970;5.904;2023-09-08T13:05:58;31.40;94.90
64143;DHT22;50437;51.970;5.904;2023-09-08T13:08:24;31.60;96.30
64143;DHT22;50437;51.970;5.904;2023-09-08T13:10:53;31.30;96.10
64143;DHT22;50437;51.970;5.904;2023-09-08T13:13:19;31.40;95.20
64143;DHT22;50437;51.970;5.904;2023-09-08T13:15:46;31.40;94.90
64143;DHT22;50437;51.970;5.904;2023-09-08T13:18:12;31.40;94.00
64143;DHT22;50437;51.970;5.904;2023-09-08T13:20:38;31.40;94.50
64143;DHT22;50437;51.970;5.904;2023-09-08T13:23:05;31.50;94.40
64143;DHT22;50437;51.970;5.904;2023-09-08T13:25:36;31.60;93.90
64143;DHT22;50437;51.970;5.904;2023-09-08T13:28:06;31.60;94.70
64143;DHT22;50437;51.970;5.904;2023-09-08T13:31:01;31.60;95.10
64143;DHT22;50437;51.970;5.904;2023-09-08T13:33:30;31.40;94.30
64143;DHT22;50437;51.970;5.904;2023-09-08T13:35:57;31.40;94.50
64143;DHT22;50437;51.970;5.904;2023-09-08T13:38:24;31.30;93.60
64143;DHT22;50437;51.970;5.904;2023-09-08T13:40:51;31.20;94.60
64143;DHT22;50437;51.970;5.904;2023-09-08T13:43:19;31.30;94.00
64143;DHT22;50437;51.970;5.904;2023-09-08T13:45:46;31.50;93.90
64143;DHT22;50437;51.970;5.904;2023-09-08T13:48:12;31.50;94.40
64143;DHT22;50437;51.970;5.904;2023-09-08T13:50:38;31.70;94.80
64143;DHT22;50437;51.970;5.904;2023-09-08T13:53:08;31.60;94.00
64143;DHT22;50437;51.970;5.904;2023-09-08T13:55:34;31.60;94.30
64143;DHT22;50437;51.970;5.904;2023-09-08T13:58:00;31.50;93.80
64143;DHT22;50437;51.970;5.904;2023-09-08T14:00:29;31.30;95.10
64143;DHT22;50437;51.970;5.904;2023-09-08T14:02:55;31.40;95.10
64143;DHT22;50437;51.970;5.904;2023-09-08T14:05:21;31.50;94.70
64143;DHT22;50437;51.970;5.904;2023-09-08T14:07:47;31.60;95.40
64143;DHT22;50437;51.970;5.904;2023-09-08T14:10:15;31.50;94.50
64143;DHT22;50437;51.970;5.904;2023-09-08T14:12:42;31.50;96.00
64143;DHT22;50437;51.970;5.904;2023-09-08T14:15:08;31.30;94.60
64143;DHT22;50437;51.970;5.904;2023-09-08T14:17:36;31.50;94.70
64143;DHT22;50437;51.970;5.904;2023-09-08T14:20:05;31.50;95.40
64143;DHT22;50437;51.970;5.904;2023-09-08T14:22:45;31.30;93.50
64143;DHT22;50437;51.970;5.904;2023-09-08T14:25:11;31.50;94.10
64143;DHT22;50437;51.970;5.904;2023-09-08T14:27:39;31.50;94.40
64143;DHT22;50437;51.970;5.904;2023-09-08T14:30:05;31.30;93.60
64143;DHT22;50437;51.970;5.904;2023-09-08T14:32:31;31.50;94.90
64143;DHT22;50437;51.970;5.904;2023-09-08T14:34:58;31.40;94.80
64143;DHT22;50437;51.970;5.904;2023-09-08T14:37:24;31.50;93.90
64143;DHT22;50437;51.970;5.904;2023-09-08T14:39:51;31.70;94.90
64143;DHT22;50437;51.970;5.904;2023-09-08T14:42:17;31.60;94.50
64143;DHT22;50437;51.970;5.904;2023-09-08T14:44:43;31.60;93.20
64143;DHT22;50437;51.970;5.904;2023-09-08T14:47:09;31.60;94.10
64143;DHT22;50437;51.970;5.904;2023-09-08T14:49:38;31.50;93.90
64143;DHT22;50437;51.970;5.904;2023-09-08T14:52:10;31.30;92.60
64143;DHT22;50437;51.970;5.904;2023-09-08T14:54:47;31.40;93.60
64143;DHT22;50437;51.970;5.904;2023-09-08T14:57:13;31.40;94.10
64143;DHT22;50437;51.970;5.904;2023-09-08T14:59:39;31.50;94.30
64143;DHT22;50437;51.970;5.904;2023-09-08T15:02:06;31.50;93.70
64143;DHT22;50437;51.970;5.904;2023-09-08T15:04:34;31.30;94.00
64143;DHT22;50437;51.970;5.904;2023-09-08T15:07:01;31.30;93.80
64143;DHT22;50437;51.970;5.904;2023-09-08T15:09:56;31.10;92.90
64143;DHT22;50437;51.970;5.904;2023-09-08T15:12:22;31.10;94.20
64143;DHT22;50437;51.970;5.904;2023-09-08T15:14:51;31.20;94.30
64143;DHT22;50437;51.970;5.904;2023-09-08T15:17:21;31.30;94.50
64143;DHT22;50437;51.970;5.904;2023-09-08T15:19:47;31.20;93.20
64143;DHT22;50437;51.970;5.904;2023-09-08T15:22:19;31.30;93.70
64143;DHT22;50437;51.970;5.904;2023-09-08T15:25:34;31.30;93.90
64143;DHT22;50437;51.970;5.904;2023-09-08T15:28:00;31.10;93.90
64143;DHT22;50437;51.970;5.904;2023-09-08T15:30:27;31.00;95.10
64143;DHT22;50437;51.970;5.904;2023-09-08T15:32:53;31.00;95.10
64143;DHT22;50437;51.970;5.904;2023-09-08T15:35:19;31.10;94.40
64143;DHT22;50437;51.970;5.904;2023-09-08T15:37:45;30.70;95.50
64143;DHT22;50437;51.970;5.904;2023-09-08T15:40:12;30.70;94.20